sensor_id;sensor_type;location;lat;lon;timestamp;P1;durP1;ratioP1;P2;durP2;ratioP2
928;SDS011;451;47.988;7.842;2023-04-20T00:08:06;10.73;;;9.63;;
928;SDS011;451;47.988;7.842;2023-04-20T00:17:09;10.73;;;9.00;;
928;SDS011;451;47.988;7.842;2023-04-20T00:26:14;9.63;;;7.93;;
928;SDS011;451;47.988;7.842;2023-04-20T00:35:18;9.20;;;8.30;;
928;SDS011;451;47.988;7.842;2023-04-20T00:44:22;9.07;;;8.20;;
928;SDS011;451;47.988;7.842;2023-04-20T00:53:25;11.40;;;8.47;;
928;SDS011;451;47.988;7.842;2023-04-20T01:02:32;7.60;;;6.90;;
928;SDS011;451;47.988;7.842;2023-04-20T01:11:35;7.13;;;6.50;;
928;SDS011;451;47.988;7.842;2023-04-20T01:20:39;6.60;;;6.00;;
928;SDS011;451;47.988;7.842;2023-04-20T01:29:44;7.10;;;6.50;;
928;SDS011;451;47.988;7.842;2023-04-20T01:38:47;7.30;;;6.60;;
928;SDS011;451;47.988;7.842;2023-04-20T01:47:52;7.47;;;5.70;;
928;SDS011;451;47.988;7.842;2023-04-20T01:56:55;8.20;;;6.40;;
928;SDS011;451;47.988;7.842;2023-04-20T02:05:59;5.20;;;4.80;;
928;SDS011;451;47.988;7.842;2023-04-20T02:15:05;5.87;;;5.00;;
928;SDS011;451;47.988;7.842;2023-04-20T02:24:11;6.73;;;6.07;;
928;SDS011;451;47.988;7.842;2023-04-20T02:33:14;6.33;;;5.73;;
928;SDS011;451;47.988;7.842;2023-04-20T02:42:19;6.57;;;5.90;;
928;SDS011;451;47.988;7.842;2023-04-20T02:51:23;6.13;;;5.63;;
928;SDS011;451;47.988;7.842;2023-04-20T03:00:29;6.43;;;5.77;;
928;SDS011;451;47.988;7.842;2023-04-20T03:09:39;6.03;;;5.53;;
928;SDS011;451;47.988;7.842;2023-04-20T03:19:07;6.77;;;5.67;;
928;SDS011;451;47.988;7.842;2023-04-20T03:28:10;5.93;;;5.13;;
928;SDS011;451;47.988;7.842;2023-04-20T03:37:17;7.50;;;6.70;;
928;SDS011;451;47.988;7.842;2023-04-20T03:46:22;7.47;;;5.97;;
928;SDS011;451;47.988;7.842;2023-04-20T03:55:26;6.37;;;5.77;;
928;SDS011;451;47.988;7.842;2023-04-20T04:04:35;7.17;;;6.47;;
928;SDS011;451;47.988;7.842;2023-04-20T04:13:39;11.03;;;7.00;;
928;SDS011;451;47.988;7.842;2023-04-20T04:22:44;7.33;;;6.63;;
928;SDS011;451;47.988;7.842;2023-04-20T04:32:07;7.93;;;6.77;;
928;SDS011;451;47.988;7.842;2023-04-20T04:41:12;7.20;;;6.50;;
928;SDS011;451;47.988;7.842;2023-04-20T04:50:18;14.57;;;12.00;;
928;SDS011;451;47.988;7.842;2023-04-20T04:59:22;11.80;;;9.00;;
928;SDS011;451;47.988;7.842;2023-04-20T05:08:26;8.90;;;7.50;;
928;SDS011;451;47.988;7.842;2023-04-20T05:17:29;10.90;;;8.07;;
928;SDS011;451;47.988;7.842;2023-04-20T05:26:34;9.47;;;8.50;;
928;SDS011;451;47.988;7.842;2023-04-20T05:35:37;8.60;;;7.77;;
928;SDS011;451;47.988;7.842;2023-04-20T05:44:42;9.17;;;7.57;;
928;SDS011;451;47.988;7.842;2023-04-20T05:53:45;9.90;;;8.80;;
928;SDS011;451;47.988;7.842;2023-04-20T06:02:49;11.33;;;9.30;;
928;SDS011;451;47.988;7.842;2023-04-20T06:11:52;9.83;;;8.83;;
928;SDS011;451;47.988;7.842;2023-04-20T06:20:57;9.80;;;8.83;;
928;SDS011;451;47.988;7.842;2023-04-20T06:30:01;14.57;;;8.50;;
928;SDS011;451;47.988;7.842;2023-04-20T06:39:06;13.20;;;9.93;;
928;SDS011;451;47.988;7.842;2023-04-20T06:48:10;11.50;;;9.30;;
928;SDS011;451;47.988;7.842;2023-04-20T06:57:14;12.13;;;9.20;;
928;SDS011;451;47.988;7.842;2023-04-20T07:06:17;10.47;;;9.40;;
928;SDS011;451;47.988;7.842;2023-04-20T07:15:21;9.93;;;9.00;;
928;SDS011;451;47.988;7.842;2023-04-20T07:24:24;11.10;;;10.00;;
928;SDS011;451;47.988;7.842;2023-04-20T07:33:29;10.00;;;8.47;;
928;SDS011;451;47.988;7.842;2023-04-20T07:42:32;9.97;;;8.83;;
928;SDS011;451;47.988;7.842;2023-04-20T07:51:38;12.00;;;10.20;;
928;SDS011;451;47.988;7.842;2023-04-20T08:00:41;10.53;;;9.40;;
928;SDS011;451;47.988;7.842;2023-04-20T08:09:48;10.53;;;9.03;;
928;SDS011;451;47.988;7.842;2023-04-20T08:18:51;11.80;;;10.57;;
928;SDS011;451;47.988;7.842;2023-04-20T08:27:55;12.43;;;9.87;;
928;SDS011;451;47.988;7.842;2023-04-20T08:36:58;16.13;;;12.33;;
928;SDS011;451;47.988;7.842;2023-04-20T08:46:03;10.93;;;9.93;;
928;SDS011;451;47.988;7.842;2023-04-20T08:55:07;10.27;;;9.27;;
928;SDS011;451;47.988;7.842;2023-04-20T09:04:18;10.90;;;9.80;;
928;SDS011;451;47.988;7.842;2023-04-20T09:13:22;10.77;;;9.30;;
928;SDS011;451;47.988;7.842;2023-04-20T09:22:30;10.00;;;8.97;;
928;SDS011;451;47.988;7.842;2023-04-20T09:31:35;10.47;;;9.07;;
928;SDS011;451;47.988;7.842;2023-04-20T09:40:39;11.10;;;8.23;;
928;SDS011;451;47.988;7.842;2023-04-20T09:49:43;9.13;;;7.70;;
928;SDS011;451;47.988;7.842;2023-04-20T09:58:47;8.00;;;7.30;;
928;SDS011;451;47.988;7.842;2023-04-20T10:07:57;14.00;;;6.47;;
928;SDS011;451;47.988;7.842;2023-04-20T10:17:03;4.83;;;4.43;;
928;SDS011;451;47.988;7.842;2023-04-20T10:26:06;5.10;;;4.70;;
928;SDS011;451;47.988;7.842;2023-04-20T10:35:11;7.37;;;6.77;;
928;SDS011;451;47.988;7.842;2023-04-20T10:44:14;4.67;;;4.33;;
928;SDS011;451;47.988;7.842;2023-04-20T10:53:21;4.13;;;3.83;;
928;SDS011;451;47.988;7.842;2023-04-20T11:02:24;3.80;;;3.53;;
928;SDS011;451;47.988;7.842;2023-04-20T11:11:29;3.73;;;3.50;;
928;SDS011;451;47.988;7.842;2023-04-20T11:20:32;3.53;;;3.33;;
928;SDS011;451;47.988;7.842;2023-04-20T11:29:38;4.50;;;3.70;;
928;SDS011;451;47.988;7.842;2023-04-20T11:38:41;2.70;;;2.60;;
928;SDS011;451;47.988;7.842;2023-04-20T11:47:46;3.40;;;3.20;;
928;SDS011;451;47.988;7.842;2023-04-20T11:56:49;3.73;;;2.63;;
928;SDS011;451;47.988;7.842;2023-04-20T12:05:54;3.10;;;3.00;;
928;SDS011;451;47.988;7.842;2023-04-20T12:14:57;3.03;;;2.83;;
928;SDS011;451;47.988;7.842;2023-04-20T12:24:01;2.73;;;2.63;;
928;SDS011;451;47.988;7.842;2023-04-20T12:33:05;2.00;;;1.90;;
928;SDS011;451;47.988;7.842;2023-04-20T12:42:09;1.70;;;1.70;;
928;SDS011;451;47.988;7.842;2023-04-20T12:51:13;1.90;;;1.80;;
928;SDS011;451;47.988;7.842;2023-04-20T13:00:18;1.10;;;1.10;;
928;SDS011;451;47.988;7.842;2023-04-20T13:09:22;1.03;;;1.03;;
928;SDS011;451;47.988;7.842;2023-04-20T13:18:28;1.50;;;1.40;;
928;SDS011;451;47.988;7.842;2023-04-20T13:27:31;1.20;;;1.20;;
928;SDS011;451;47.988;7.842;2023-04-20T13:36:36;1.33;;;1.33;;
928;SDS011;451;47.988;7.842;2023-04-20T13:45:40;3.93;;;1.37;;
928;SDS011;451;47.988;7.842;2023-04-20T13:54:45;1.20;;;1.20;;
928;SDS011;451;47.988;7.842;2023-04-20T14:03:48;1.60;;;1.50;;
928;SDS011;451;47.988;7.842;2023-04-20T14:12:54;1.40;;;1.40;;
928;SDS011;451;47.988;7.842;2023-04-20T14:21:57;1.30;;;1.30;;
928;SDS011;451;47.988;7.842;2023-04-20T14:31:02;1.93;;;1.83;;
928;SDS011;451;47.988;7.842;2023-04-20T14:40:05;1.30;;;1.20;;
928;SDS011;451;47.988;7.842;2023-04-20T14:49:10;1.20;;;1.20;;
928;SDS011;451;47.988;7.842;2023-04-20T14:58:15;1.10;;;1.10;;
928;SDS011;451;47.988;7.842;2023-04-20T15:07:20;1.20;;;1.10;;
928;SDS011;451;47.988;7.842;2023-04-20T15:16:23;2.90;;;2.70;;
928;SDS011;451;47.988;7.842;2023-04-20T15:25:28;1.47;;;1.47;;
928;SDS011;451;47.988;7.842;2023-04-20T15:34:32;1.23;;;1.20;;
928;SDS011;451;47.988;7.842;2023-04-20T15:43:36;1.17;;;1.17;;
928;SDS011;451;47.988;7.842;2023-04-20T15:52:39;1.73;;;1.63;;
928;SDS011;451;47.988;7.842;2023-04-20T16:01:45;2.40;;;1.20;;
928;SDS011;451;47.988;7.842;2023-04-20T16:10:48;1.00;;;1.00;;
928;SDS011;451;47.988;7.842;2023-04-20T16:19:52;1.30;;;1.20;;
928;SDS011;451;47.988;7.842;2023-04-20T16:28:55;1.40;;;1.37;;
928;SDS011;451;47.988;7.842;2023-04-20T16:37:59;1.20;;;1.20;;
928;SDS011;451;47.988;7.842;2023-04-20T16:47:02;3.30;;;2.53;;
928;SDS011;451;47.988;7.842;2023-04-20T16:56:07;1.47;;;1.37;;
928;SDS011;451;47.988;7.842;2023-04-20T17:05:10;1.20;;;1.20;;
928;SDS011;451;47.988;7.842;2023-04-20T17:14:15;1.33;;;1.33;;
928;SDS011;451;47.988;7.842;2023-04-20T17:23:20;1.30;;;1.30;;
928;SDS011;451;47.988;7.842;2023-04-20T17:32:24;1.33;;;1.33;;
928;SDS011;451;47.988;7.842;2023-04-20T17:41:28;1.67;;;1.57;;
928;SDS011;451;47.988;7.842;2023-04-20T17:50:33;1.80;;;1.70;;
928;SDS011;451;47.988;7.842;2023-04-20T17:59:36;3.00;;;2.00;;
928;SDS011;451;47.988;7.842;2023-04-20T18:08:40;1.60;;;1.50;;
928;SDS011;451;47.988;7.842;2023-04-20T18:17:43;2.93;;;2.70;;
928;SDS011;451;47.988;7.842;2023-04-20T18:26:48;2.30;;;2.20;;
928;SDS011;451;47.988;7.842;2023-04-20T18:35:51;3.00;;;2.37;;
928;SDS011;451;47.988;7.842;2023-04-20T18:44:56;2.00;;;1.90;;
928;SDS011;451;47.988;7.842;2023-04-20T18:53:59;1.80;;;1.70;;
928;SDS011;451;47.988;7.842;2023-04-20T19:03:04;2.60;;;2.40;;
928;SDS011;451;47.988;7.842;2023-04-20T19:12:07;2.83;;;2.63;;
928;SDS011;451;47.988;7.842;2023-04-20T19:21:13;3.30;;;3.10;;
928;SDS011;451;47.988;7.842;2023-04-20T19:30:16;3.13;;;2.83;;
928;SDS011;451;47.988;7.842;2023-04-20T19:39:20;3.10;;;2.90;;
928;SDS011;451;47.988;7.842;2023-04-20T19:48:23;4.20;;;3.90;;
928;SDS011;451;47.988;7.842;2023-04-20T19:57:28;3.77;;;3.47;;
928;SDS011;451;47.988;7.842;2023-04-20T20:06:31;3.00;;;2.80;;
928;SDS011;451;47.988;7.842;2023-04-20T20:15:36;3.63;;;3.27;;
928;SDS011;451;47.988;7.842;2023-04-20T20:24:39;3.40;;;3.20;;
928;SDS011;451;47.988;7.842;2023-04-20T20:33:46;3.23;;;3.03;;
928;SDS011;451;47.988;7.842;2023-04-20T20:42:49;3.70;;;3.40;;
928;SDS011;451;47.988;7.842;2023-04-20T20:51:54;3.73;;;3.53;;
928;SDS011;451;47.988;7.842;2023-04-20T21:00:57;4.80;;;3.67;;
928;SDS011;451;47.988;7.842;2023-04-20T21:10:01;3.60;;;3.40;;
928;SDS011;451;47.988;7.842;2023-04-20T21:19:04;3.60;;;3.30;;
928;SDS011;451;47.988;7.842;2023-04-20T21:28:09;3.50;;;3.30;;
928;SDS011;451;47.988;7.842;2023-04-20T21:37:12;3.03;;;2.83;;
928;SDS011;451;47.988;7.842;2023-04-20T21:46:16;3.90;;;3.63;;
928;SDS011;451;47.988;7.842;2023-04-20T21:55:19;3.20;;;2.90;;
928;SDS011;451;47.988;7.842;2023-04-20T22:04:24;3.93;;;3.53;;
928;SDS011;451;47.988;7.842;2023-04-20T22:13:27;3.80;;;3.60;;
928;SDS011;451;47.988;7.842;2023-04-20T22:22:32;4.03;;;3.63;;
928;SDS011;451;47.988;7.842;2023-04-20T22:31:35;3.03;;;2.83;;
928;SDS011;451;47.988;7.842;2023-04-20T22:40:39;5.00;;;3.67;;
928;SDS011;451;47.988;7.842;2023-04-20T22:49:42;3.37;;;3.10;;
928;SDS011;451;47.988;7.842;2023-04-20T22:58:48;3.60;;;3.30;;
928;SDS011;451;47.988;7.842;2023-04-20T23:07:51;4.60;;;3.10;;
928;SDS011;451;47.988;7.842;2023-04-20T23:16:57;3.93;;;3.60;;
928;SDS011;451;47.988;7.842;2023-04-20T23:26:00;4.27;;;3.63;;
928;SDS011;451;47.988;7.842;2023-04-20T23:35:05;3.53;;;3.33;;
928;SDS011;451;47.988;7.842;2023-04-20T23:44:08;3.70;;;3.50;;
928;SDS011;451;47.988;7.842;2023-04-20T23:53:12;3.57;;;3.27;;
